sensor_id;sensor_type;location;lat;lon;timestamp;temperature;humidity
13976;DHT22;7062;49.792;9.946;2022-09-06T00:01:41;20.40;99.90
13976;DHT22;7062;49.792;9.946;2022-09-06T00:04:07;20.40;99.90
13976;DHT22;7062;49.792;9.946;2022-09-06T00:06:33;20.40;99.90
13976;DHT22;7062;49.792;9.946;2022-09-06T00:08:59;20.40;99.90
13976;DHT22;7062;49.792;9.946;2022-09-06T00:11:25;20.30;99.90
13976;DHT22;7062;49.792;9.946;2022-09-06T00:13:51;20.30;99.90
13976;DHT22;7062;49.792;9.946;2022-09-06T00:16:21;20.20;99.90
13976;DHT22;7062;49.792;9.946;2022-09-06T00:18:51;20.20;99.90
13976;DHT22;7062;49.792;9.946;2022-09-06T00:21:25;20.20;99.90
13976;DHT22;7062;49.792;9.946;2022-09-06T00:23:52;20.20;99.90
13976;DHT22;7062;49.792;9.946;2022-09-06T00:26:18;20.10;99.90
13976;DHT22;7062;49.792;9.946;2022-09-06T00:28:45;20.00;99.90
13976;DHT22;7062;49.792;9.946;2022-09-06T00:31:17;20.00;99.90
13976;DHT22;7062;49.792;9.946;2022-09-06T00:33:43;20.00;99.90
13976;DHT22;7062;49.792;9.946;2022-09-06T00:36:09;20.00;99.90
13976;DHT22;7062;49.792;9.946;2022-09-06T00:38:35;20.00;99.90
13976;DHT22;7062;49.792;9.946;2022-09-06T00:41:01;19.90;99.90
13976;DHT22;7062;49.792;9.946;2022-09-06T00:43:27;19.80;99.90
13976;DHT22;7062;49.792;9.946;2022-09-06T00:45:53;19.80;99.90
13976;DHT22;7062;49.792;9.946;2022-09-06T00:48:20;19.80;99.90
13976;DHT22;7062;49.792;9.946;2022-09-06T00:50:47;19.90;99.90
13976;DHT22;7062;49.792;9.946;2022-09-06T00:53:14;19.80;99.90
13976;DHT22;7062;49.792;9.946;2022-09-06T00:55:41;19.80;99.90
13976;DHT22;7062;49.792;9.946;2022-09-06T00:58:08;19.80;99.90
13976;DHT22;7062;49.792;9.946;2022-09-06T01:00:34;19.80;99.90
13976;DHT22;7062;49.792;9.946;2022-09-06T01:03:00;19.90;99.90
13976;DHT22;7062;49.792;9.946;2022-09-06T01:33:34;19.80;99.90
13976;DHT22;7062;49.792;9.946;2022-09-06T01:36:07;19.80;99.90
13976;DHT22;7062;49.792;9.946;2022-09-06T01:38:34;19.80;99.90
13976;DHT22;7062;49.792;9.946;2022-09-06T01:41:00;19.80;99.90
13976;DHT22;7062;49.792;9.946;2022-09-06T01:43:32;19.80;99.90
13976;DHT22;7062;49.792;9.946;2022-09-06T01:46:14;19.90;99.90
13976;DHT22;7062;49.792;9.946;2022-09-06T01:48:54;19.90;99.90
13976;DHT22;7062;49.792;9.946;2022-09-06T01:54:27;19.80;99.90
13976;DHT22;7062;49.792;9.946;2022-09-06T02:05:49;19.70;99.90
13976;DHT22;7062;49.792;9.946;2022-09-06T02:08:22;19.70;99.90
13976;DHT22;7062;49.792;9.946;2022-09-06T02:10:59;19.70;99.90
13976;DHT22;7062;49.792;9.946;2022-09-06T02:13:36;19.70;99.90
13976;DHT22;7062;49.792;9.946;2022-09-06T02:16:05;19.60;99.90
13976;DHT22;7062;49.792;9.946;2022-09-06T02:18:40;19.60;99.90
13976;DHT22;7062;49.792;9.946;2022-09-06T02:21:09;19.60;99.90
13976;DHT22;7062;49.792;9.946;2022-09-06T02:23:38;19.60;99.90
13976;DHT22;7062;49.792;9.946;2022-09-06T02:26:12;19.60;99.90
13976;DHT22;7062;49.792;9.946;2022-09-06T02:28:38;19.60;99.90
13976;DHT22;7062;49.792;9.946;2022-09-06T02:33:50;19.50;99.90
13976;DHT22;7062;49.792;9.946;2022-09-06T02:36:16;19.50;99.90
13976;DHT22;7062;49.792;9.946;2022-09-06T02:38:44;19.50;99.90
13976;DHT22;7062;49.792;9.946;2022-09-06T02:41:10;19.50;99.90
13976;DHT22;7062;49.792;9.946;2022-09-06T02:43:36;19.60;99.90
13976;DHT22;7062;49.792;9.946;2022-09-06T02:46:03;19.50;99.90
13976;DHT22;7062;49.792;9.946;2022-09-06T02:48:28;19.50;99.90
13976;DHT22;7062;49.792;9.946;2022-09-06T02:50:54;19.50;99.90
13976;DHT22;7062;49.792;9.946;2022-09-06T02:53:20;19.50;99.90
13976;DHT22;7062;49.792;9.946;2022-09-06T02:55:46;19.50;99.90
13976;DHT22;7062;49.792;9.946;2022-09-06T02:58:13;19.50;99.90
13976;DHT22;7062;49.792;9.946;2022-09-06T03:00:40;19.50;99.90
13976;DHT22;7062;49.792;9.946;2022-09-06T03:03:06;19.40;99.90
13976;DHT22;7062;49.792;9.946;2022-09-06T03:05:32;19.50;99.90
13976;DHT22;7062;49.792;9.946;2022-09-06T03:07:58;19.40;99.90
13976;DHT22;7062;49.792;9.946;2022-09-06T03:10:24;19.40;99.90
13976;DHT22;7062;49.792;9.946;2022-09-06T03:12:51;19.50;99.90
13976;DHT22;7062;49.792;9.946;2022-09-06T03:15:17;19.50;99.90
13976;DHT22;7062;49.792;9.946;2022-09-06T03:17:43;19.50;99.90
13976;DHT22;7062;49.792;9.946;2022-09-06T03:20:10;19.50;99.90
13976;DHT22;7062;49.792;9.946;2022-09-06T03:22:37;19.50;99.90
13976;DHT22;7062;49.792;9.946;2022-09-06T03:25:04;19.50;99.90
13976;DHT22;7062;49.792;9.946;2022-09-06T03:27:30;19.50;99.90
13976;DHT22;7062;49.792;9.946;2022-09-06T03:29:56;19.50;99.90
13976;DHT22;7062;49.792;9.946;2022-09-06T03:32:21;19.60;99.90
13976;DHT22;7062;49.792;9.946;2022-09-06T03:34:47;19.50;99.90
13976;DHT22;7062;49.792;9.946;2022-09-06T03:37:12;18.90;99.90
13976;DHT22;7062;49.792;9.946;2022-09-06T03:39:38;18.70;99.90
13976;DHT22;7062;49.792;9.946;2022-09-06T03:42:04;18.70;99.90
13976;DHT22;7062;49.792;9.946;2022-09-06T03:44:29;18.80;99.90
13976;DHT22;7062;49.792;9.946;2022-09-06T03:46:55;18.80;99.90
13976;DHT22;7062;49.792;9.946;2022-09-06T03:49:21;18.90;99.90
13976;DHT22;7062;49.792;9.946;2022-09-06T03:51:46;18.90;99.90
13976;DHT22;7062;49.792;9.946;2022-09-06T03:54:12;18.90;99.90
13976;DHT22;7062;49.792;9.946;2022-09-06T03:56:37;19.00;99.90
13976;DHT22;7062;49.792;9.946;2022-09-06T03:59:03;19.00;99.90
13976;DHT22;7062;49.792;9.946;2022-09-06T04:01:29;19.10;99.90
13976;DHT22;7062;49.792;9.946;2022-09-06T04:03:54;19.10;99.90
13976;DHT22;7062;49.792;9.946;2022-09-06T04:06:20;19.10;99.90
13976;DHT22;7062;49.792;9.946;2022-09-06T04:08:46;19.10;99.90
13976;DHT22;7062;49.792;9.946;2022-09-06T04:11:11;19.10;99.90
13976;DHT22;7062;49.792;9.946;2022-09-06T04:13:37;19.20;99.90
13976;DHT22;7062;49.792;9.946;2022-09-06T04:16:04;19.20;99.90
13976;DHT22;7062;49.792;9.946;2022-09-06T04:18:30;19.30;99.90
13976;DHT22;7062;49.792;9.946;2022-09-06T04:20:56;19.30;99.90
13976;DHT22;7062;49.792;9.946;2022-09-06T04:23:24;19.20;99.90
13976;DHT22;7062;49.792;9.946;2022-09-06T04:25:52;19.10;99.90
13976;DHT22;7062;49.792;9.946;2022-09-06T04:28:19;19.10;99.90
13976;DHT22;7062;49.792;9.946;2022-09-06T04:30:58;19.20;99.90
13976;DHT22;7062;49.792;9.946;2022-09-06T04:33:25;19.10;99.90
13976;DHT22;7062;49.792;9.946;2022-09-06T04:35:53;19.10;99.90
13976;DHT22;7062;49.792;9.946;2022-09-06T04:38:19;19.10;99.90
13976;DHT22;7062;49.792;9.946;2022-09-06T04:40:45;19.20;99.90
13976;DHT22;7062;49.792;9.946;2022-09-06T04:43:10;19.20;99.90
13976;DHT22;7062;49.792;9.946;2022-09-06T04:45:36;19.30;99.90
13976;DHT22;7062;49.792;9.946;2022-09-06T04:48:02;19.30;99.90
13976;DHT22;7062;49.792;9.946;2022-09-06T04:50:27;19.30;99.90
13976;DHT22;7062;49.792;9.946;2022-09-06T04:52:53;19.40;99.90
13976;DHT22;7062;49.792;9.946;2022-09-06T04:55:19;19.50;99.90
13976;DHT22;7062;49.792;9.946;2022-09-06T04:57:44;19.50;99.90
13976;DHT22;7062;49.792;9.946;2022-09-06T05:00:10;19.50;99.90
13976;DHT22;7062;49.792;9.946;2022-09-06T05:02:36;19.50;99.90
13976;DHT22;7062;49.792;9.946;2022-09-06T05:05:02;19.50;99.90
13976;DHT22;7062;49.792;9.946;2022-09-06T05:07:29;19.40;99.90
13976;DHT22;7062;49.792;9.946;2022-09-06T05:09:54;19.40;99.90
13976;DHT22;7062;49.792;9.946;2022-09-06T05:12:21;19.40;99.90
13976;DHT22;7062;49.792;9.946;2022-09-06T05:14:46;19.30;99.90
13976;DHT22;7062;49.792;9.946;2022-09-06T05:17:12;19.40;99.90
13976;DHT22;7062;49.792;9.946;2022-09-06T05:19:39;19.30;99.90
13976;DHT22;7062;49.792;9.946;2022-09-06T05:22:05;19.30;99.90
13976;DHT22;7062;49.792;9.946;2022-09-06T05:24:30;19.30;99.90
13976;DHT22;7062;49.792;9.946;2022-09-06T05:26:56;19.40;99.90
13976;DHT22;7062;49.792;9.946;2022-09-06T05:29:23;19.30;99.90
13976;DHT22;7062;49.792;9.946;2022-09-06T05:31:48;19.30;99.90
13976;DHT22;7062;49.792;9.946;2022-09-06T05:34:14;19.50;99.90
13976;DHT22;7062;49.792;9.946;2022-09-06T05:36:40;19.50;99.90
13976;DHT22;7062;49.792;9.946;2022-09-06T05:39:06;19.50;99.90
13976;DHT22;7062;49.792;9.946;2022-09-06T05:41:32;19.50;99.90
13976;DHT22;7062;49.792;9.946;2022-09-06T05:43:58;19.50;99.90
13976;DHT22;7062;49.792;9.946;2022-09-06T05:46:24;19.60;99.90
13976;DHT22;7062;49.792;9.946;2022-09-06T05:48:55;19.60;99.90
13976;DHT22;7062;49.792;9.946;2022-09-06T05:51:22;19.60;99.90
13976;DHT22;7062;49.792;9.946;2022-09-06T05:53:48;19.50;99.90
13976;DHT22;7062;49.792;9.946;2022-09-06T05:56:14;19.30;99.90
13976;DHT22;7062;49.792;9.946;2022-09-06T05:58:40;19.30;99.90
13976;DHT22;7062;49.792;9.946;2022-09-06T06:04:00;19.10;99.90
13976;DHT22;7062;49.792;9.946;2022-09-06T06:06:28;19.10;99.90
13976;DHT22;7062;49.792;9.946;2022-09-06T06:08:54;19.20;99.90
13976;DHT22;7062;49.792;9.946;2022-09-06T06:11:21;19.30;99.90
13976;DHT22;7062;49.792;9.946;2022-09-06T06:13:47;19.40;99.90
13976;DHT22;7062;49.792;9.946;2022-09-06T06:16:15;19.30;99.90
13976;DHT22;7062;49.792;9.946;2022-09-06T06:18:41;19.40;99.90
13976;DHT22;7062;49.792;9.946;2022-09-06T06:23:42;19.50;99.90
13976;DHT22;7062;49.792;9.946;2022-09-06T06:26:09;19.40;99.90
13976;DHT22;7062;49.792;9.946;2022-09-06T06:28:35;19.40;99.90
13976;DHT22;7062;49.792;9.946;2022-09-06T06:31:02;19.40;99.90
13976;DHT22;7062;49.792;9.946;2022-09-06T06:33:28;19.40;99.90
13976;DHT22;7062;49.792;9.946;2022-09-06T06:36:05;19.40;99.90
13976;DHT22;7062;49.792;9.946;2022-09-06T06:38:36;19.30;99.90
13976;DHT22;7062;49.792;9.946;2022-09-06T06:41:03;19.30;99.90
13976;DHT22;7062;49.792;9.946;2022-09-06T06:43:29;19.30;99.90
13976;DHT22;7062;49.792;9.946;2022-09-06T06:46:02;19.30;99.90
13976;DHT22;7062;49.792;9.946;2022-09-06T06:48:27;19.20;99.90
13976;DHT22;7062;49.792;9.946;2022-09-06T06:50:53;19.40;99.90
13976;DHT22;7062;49.792;9.946;2022-09-06T06:53:19;19.60;99.90
13976;DHT22;7062;49.792;9.946;2022-09-06T06:55:45;19.70;99.90
13976;DHT22;7062;49.792;9.946;2022-09-06T06:58:16;19.80;99.90
13976;DHT22;7062;49.792;9.946;2022-09-06T07:00:42;20.00;99.90
13976;DHT22;7062;49.792;9.946;2022-09-06T07:03:08;19.90;99.90
13976;DHT22;7062;49.792;9.946;2022-09-06T07:05:35;19.90;99.90
13976;DHT22;7062;49.792;9.946;2022-09-06T07:08:01;19.90;99.90
13976;DHT22;7062;49.792;9.946;2022-09-06T07:10:26;20.00;99.90
13976;DHT22;7062;49.792;9.946;2022-09-06T07:12:52;20.20;99.90
13976;DHT22;7062;49.792;9.946;2022-09-06T07:15:18;20.30;99.90
13976;DHT22;7062;49.792;9.946;2022-09-06T07:17:44;20.40;99.90
13976;DHT22;7062;49.792;9.946;2022-09-06T07:20:10;20.50;99.90
13976;DHT22;7062;49.792;9.946;2022-09-06T07:22:36;20.60;99.90
13976;DHT22;7062;49.792;9.946;2022-09-06T07:25:04;20.80;99.90
13976;DHT22;7062;49.792;9.946;2022-09-06T07:27:30;20.70;99.90
13976;DHT22;7062;49.792;9.946;2022-09-06T07:29:55;20.80;99.90
13976;DHT22;7062;49.792;9.946;2022-09-06T07:32:21;21.00;99.90
13976;DHT22;7062;49.792;9.946;2022-09-06T07:34:47;21.20;99.90
13976;DHT22;7062;49.792;9.946;2022-09-06T07:37:13;21.30;99.90
13976;DHT22;7062;49.792;9.946;2022-09-06T07:39:38;21.30;99.90
13976;DHT22;7062;49.792;9.946;2022-09-06T07:42:05;21.50;99.90
13976;DHT22;7062;49.792;9.946;2022-09-06T07:44:31;21.50;99.90
13976;DHT22;7062;49.792;9.946;2022-09-06T07:46:57;21.50;99.90
13976;DHT22;7062;49.792;9.946;2022-09-06T07:49:22;21.50;99.90
13976;DHT22;7062;49.792;9.946;2022-09-06T07:51:48;21.60;99.90
13976;DHT22;7062;49.792;9.946;2022-09-06T07:54:14;21.60;99.90
13976;DHT22;7062;49.792;9.946;2022-09-06T07:56:39;21.60;99.90
13976;DHT22;7062;49.792;9.946;2022-09-06T07:59:05;21.70;99.90
13976;DHT22;7062;49.792;9.946;2022-09-06T08:01:35;21.90;99.90
13976;DHT22;7062;49.792;9.946;2022-09-06T08:06:29;22.30;99.90
13976;DHT22;7062;49.792;9.946;2022-09-06T08:08:56;22.50;99.90
13976;DHT22;7062;49.792;9.946;2022-09-06T08:11:24;22.60;99.90
13976;DHT22;7062;49.792;9.946;2022-09-06T08:13:50;22.60;99.90
13976;DHT22;7062;49.792;9.946;2022-09-06T08:16:19;22.70;99.90
13976;DHT22;7062;49.792;9.946;2022-09-06T08:18:52;22.90;99.90
13976;DHT22;7062;49.792;9.946;2022-09-06T08:21:18;23.10;99.90
13976;DHT22;7062;49.792;9.946;2022-09-06T08:23:47;23.40;99.90
13976;DHT22;7062;49.792;9.946;2022-09-06T08:26:14;23.50;99.90
13976;DHT22;7062;49.792;9.946;2022-09-06T08:28:40;23.70;99.90
13976;DHT22;7062;49.792;9.946;2022-09-06T08:31:13;23.90;99.90
13976;DHT22;7062;49.792;9.946;2022-09-06T08:33:39;24.10;99.90
13976;DHT22;7062;49.792;9.946;2022-09-06T08:36:06;24.10;99.90
13976;DHT22;7062;49.792;9.946;2022-09-06T08:38:32;24.20;99.90
13976;DHT22;7062;49.792;9.946;2022-09-06T08:43:47;24.60;99.90
13976;DHT22;7062;49.792;9.946;2022-09-06T08:46:14;24.70;99.90
13976;DHT22;7062;49.792;9.946;2022-09-06T08:48:42;24.90;99.90
13976;DHT22;7062;49.792;9.946;2022-09-06T08:59:27;26.10;99.90
13976;DHT22;7062;49.792;9.946;2022-09-06T09:01:58;26.40;99.90
13976;DHT22;7062;49.792;9.946;2022-09-06T09:04:27;27.20;99.90
13976;DHT22;7062;49.792;9.946;2022-09-06T09:07:09;28.10;99.80
13976;DHT22;7062;49.792;9.946;2022-09-06T09:09:36;29.00;98.10
13976;DHT22;7062;49.792;9.946;2022-09-06T09:12:02;29.60;96.30
13976;DHT22;7062;49.792;9.946;2022-09-06T09:14:29;30.80;94.30
13976;DHT22;7062;49.792;9.946;2022-09-06T09:17:05;31.50;92.60
13976;DHT22;7062;49.792;9.946;2022-09-06T09:19:31;32.70;91.00
13976;DHT22;7062;49.792;9.946;2022-09-06T09:22:01;33.60;87.00
13976;DHT22;7062;49.792;9.946;2022-09-06T09:24:26;34.50;84.50
13976;DHT22;7062;49.792;9.946;2022-09-06T09:27:10;34.90;81.60
13976;DHT22;7062;49.792;9.946;2022-09-06T09:30:03;35.20;80.30
13976;DHT22;7062;49.792;9.946;2022-09-06T09:32:36;36.30;76.80
13976;DHT22;7062;49.792;9.946;2022-09-06T09:35:32;36.80;75.30
13976;DHT22;7062;49.792;9.946;2022-09-06T09:38:02;35.70;76.00
13976;DHT22;7062;49.792;9.946;2022-09-06T09:40:37;35.60;75.90
13976;DHT22;7062;49.792;9.946;2022-09-06T09:45:35;35.50;74.70
13976;DHT22;7062;49.792;9.946;2022-09-06T09:48:17;36.10;73.30
13976;DHT22;7062;49.792;9.946;2022-09-06T09:50:44;37.00;72.00
13976;DHT22;7062;49.792;9.946;2022-09-06T09:53:13;38.60;70.00
13976;DHT22;7062;49.792;9.946;2022-09-06T09:55:40;39.00;66.70
13976;DHT22;7062;49.792;9.946;2022-09-06T09:58:15;39.20;67.00
13976;DHT22;7062;49.792;9.946;2022-09-06T10:00:42;40.10;63.70
13976;DHT22;7062;49.792;9.946;2022-09-06T10:03:16;40.80;63.40
13976;DHT22;7062;49.792;9.946;2022-09-06T10:05:42;41.00;61.30
13976;DHT22;7062;49.792;9.946;2022-09-06T10:08:22;41.00;60.20
13976;DHT22;7062;49.792;9.946;2022-09-06T10:10:49;41.30;60.00
13976;DHT22;7062;49.792;9.946;2022-09-06T10:13:24;41.30;59.90
13976;DHT22;7062;49.792;9.946;2022-09-06T10:15:52;42.30;58.20
13976;DHT22;7062;49.792;9.946;2022-09-06T10:18:39;42.30;57.70
13976;DHT22;7062;49.792;9.946;2022-09-06T10:21:13;42.60;57.00
13976;DHT22;7062;49.792;9.946;2022-09-06T10:24:07;43.60;55.80
13976;DHT22;7062;49.792;9.946;2022-09-06T10:26:48;44.20;54.50
13976;DHT22;7062;49.792;9.946;2022-09-06T10:29:30;44.30;54.50
13976;DHT22;7062;49.792;9.946;2022-09-06T10:37:32;43.90;53.20
13976;DHT22;7062;49.792;9.946;2022-09-06T10:48:45;44.20;52.20
13976;DHT22;7062;49.792;9.946;2022-09-06T10:51:02;43.20;51.50
13976;DHT22;7062;49.792;9.946;2022-09-06T10:53:59;42.00;53.20
13976;DHT22;7062;49.792;9.946;2022-09-06T11:01:45;45.40;50.10
13976;DHT22;7062;49.792;9.946;2022-09-06T11:04:23;45.30;50.40
13976;DHT22;7062;49.792;9.946;2022-09-06T11:06:53;46.00;48.80
13976;DHT22;7062;49.792;9.946;2022-09-06T11:09:28;46.60;48.20
13976;DHT22;7062;49.792;9.946;2022-09-06T11:12:15;47.30;47.70
13976;DHT22;7062;49.792;9.946;2022-09-06T11:14:42;45.80;47.90
13976;DHT22;7062;49.792;9.946;2022-09-06T11:17:12;45.20;48.30
13976;DHT22;7062;49.792;9.946;2022-09-06T11:19:54;46.00;47.50
13976;DHT22;7062;49.792;9.946;2022-09-06T11:27:51;43.60;49.40
13976;DHT22;7062;49.792;9.946;2022-09-06T11:30:18;45.70;48.30
13976;DHT22;7062;49.792;9.946;2022-09-06T11:32:50;46.00;47.00
13976;DHT22;7062;49.792;9.946;2022-09-06T11:35:31;45.90;47.80
13976;DHT22;7062;49.792;9.946;2022-09-06T11:38:17;45.80;46.80
13976;DHT22;7062;49.792;9.946;2022-09-06T11:40:46;46.70;46.90
13976;DHT22;7062;49.792;9.946;2022-09-06T11:44:03;45.40;46.90
13976;DHT22;7062;49.792;9.946;2022-09-06T11:46:03;45.40;47.40
13976;DHT22;7062;49.792;9.946;2022-09-06T11:48:31;46.70;46.70
13976;DHT22;7062;49.792;9.946;2022-09-06T11:51:06;47.80;45.70
13976;DHT22;7062;49.792;9.946;2022-09-06T11:57:01;47.90;44.80
13976;DHT22;7062;49.792;9.946;2022-09-06T12:02:07;47.40;45.70
13976;DHT22;7062;49.792;9.946;2022-09-06T12:07:25;48.30;43.90
13976;DHT22;7062;49.792;9.946;2022-09-06T12:09:52;47.20;44.20
13976;DHT22;7062;49.792;9.946;2022-09-06T12:12:37;47.20;44.80
13976;DHT22;7062;49.792;9.946;2022-09-06T12:17:48;48.30;43.00
13976;DHT22;7062;49.792;9.946;2022-09-06T12:26:03;46.70;44.00
13976;DHT22;7062;49.792;9.946;2022-09-06T12:28:44;47.50;44.10
13976;DHT22;7062;49.792;9.946;2022-09-06T12:31:50;47.00;43.80
13976;DHT22;7062;49.792;9.946;2022-09-06T12:34:26;46.40;44.30
13976;DHT22;7062;49.792;9.946;2022-09-06T12:37:01;47.10;44.00
13976;DHT22;7062;49.792;9.946;2022-09-06T12:39:28;48.40;42.70
13976;DHT22;7062;49.792;9.946;2022-09-06T12:41:59;46.40;44.20
13976;DHT22;7062;49.792;9.946;2022-09-06T12:44:30;46.30;44.10
13976;DHT22;7062;49.792;9.946;2022-09-06T12:47:01;45.20;44.50
13976;DHT22;7062;49.792;9.946;2022-09-06T12:49:28;44.50;45.10
13976;DHT22;7062;49.792;9.946;2022-09-06T12:52:06;44.70;45.40
13976;DHT22;7062;49.792;9.946;2022-09-06T12:54:32;45.60;44.40
13976;DHT22;7062;49.792;9.946;2022-09-06T12:57:17;47.40;44.10
13976;DHT22;7062;49.792;9.946;2022-09-06T12:59:50;48.70;42.40
13976;DHT22;7062;49.792;9.946;2022-09-06T13:02:25;49.70;42.00
13976;DHT22;7062;49.792;9.946;2022-09-06T13:05:00;50.70;41.30
13976;DHT22;7062;49.792;9.946;2022-09-06T13:07:27;50.50;40.20
13976;DHT22;7062;49.792;9.946;2022-09-06T13:09:55;50.20;40.40
13976;DHT22;7062;49.792;9.946;2022-09-06T13:12:24;49.60;40.60
13976;DHT22;7062;49.792;9.946;2022-09-06T13:14:55;49.50;40.90
13976;DHT22;7062;49.792;9.946;2022-09-06T13:17:23;50.40;40.10
13976;DHT22;7062;49.792;9.946;2022-09-06T13:19:49;50.00;40.10
13976;DHT22;7062;49.792;9.946;2022-09-06T13:22:45;50.00;39.80
13976;DHT22;7062;49.792;9.946;2022-09-06T13:27:44;48.60;40.20
13976;DHT22;7062;49.792;9.946;2022-09-06T13:30:38;48.40;40.30
13976;DHT22;7062;49.792;9.946;2022-09-06T13:33:07;48.00;40.70
13976;DHT22;7062;49.792;9.946;2022-09-06T13:35:43;47.90;41.20
13976;DHT22;7062;49.792;9.946;2022-09-06T13:38:39;48.70;40.60
13976;DHT22;7062;49.792;9.946;2022-09-06T13:44:17;48.40;40.20
13976;DHT22;7062;49.792;9.946;2022-09-06T13:46:41;47.00;41.10
13976;DHT22;7062;49.792;9.946;2022-09-06T13:49:07;46.40;40.90
13976;DHT22;7062;49.792;9.946;2022-09-06T13:51:33;46.40;41.00
13976;DHT22;7062;49.792;9.946;2022-09-06T13:54:04;47.10;41.00
13976;DHT22;7062;49.792;9.946;2022-09-06T13:56:30;48.00;40.20
13976;DHT22;7062;49.792;9.946;2022-09-06T13:58:56;49.20;39.50
13976;DHT22;7062;49.792;9.946;2022-09-06T14:01:22;49.50;39.00
13976;DHT22;7062;49.792;9.946;2022-09-06T14:03:48;50.30;38.20
13976;DHT22;7062;49.792;9.946;2022-09-06T14:06:15;50.10;38.40
13976;DHT22;7062;49.792;9.946;2022-09-06T14:08:40;50.20;38.30
13976;DHT22;7062;49.792;9.946;2022-09-06T14:11:07;49.30;37.60
13976;DHT22;7062;49.792;9.946;2022-09-06T14:13:33;47.50;37.50
13976;DHT22;7062;49.792;9.946;2022-09-06T14:15:58;46.00;38.30
13976;DHT22;7062;49.792;9.946;2022-09-06T14:18:24;45.10;38.60
13976;DHT22;7062;49.792;9.946;2022-09-06T14:20:54;46.20;39.10
13976;DHT22;7062;49.792;9.946;2022-09-06T14:23:21;47.00;37.80
13976;DHT22;7062;49.792;9.946;2022-09-06T14:25:48;46.40;38.00
13976;DHT22;7062;49.792;9.946;2022-09-06T14:28:14;46.50;37.90
13976;DHT22;7062;49.792;9.946;2022-09-06T14:30:40;46.50;37.80
13976;DHT22;7062;49.792;9.946;2022-09-06T14:33:05;46.70;38.10
13976;DHT22;7062;49.792;9.946;2022-09-06T14:35:31;47.50;37.50
13976;DHT22;7062;49.792;9.946;2022-09-06T14:37:58;47.50;37.60
13976;DHT22;7062;49.792;9.946;2022-09-06T14:40:24;48.40;36.60
13976;DHT22;7062;49.792;9.946;2022-09-06T14:42:50;47.90;36.80
13976;DHT22;7062;49.792;9.946;2022-09-06T14:45:16;47.90;37.70
13976;DHT22;7062;49.792;9.946;2022-09-06T14:47:42;48.90;36.90
13976;DHT22;7062;49.792;9.946;2022-09-06T14:50:08;49.50;36.80
13976;DHT22;7062;49.792;9.946;2022-09-06T14:52:34;50.30;36.10
13976;DHT22;7062;49.792;9.946;2022-09-06T14:55:00;49.90;35.90
13976;DHT22;7062;49.792;9.946;2022-09-06T14:57:26;48.00;36.40
13976;DHT22;7062;49.792;9.946;2022-09-06T14:59:53;45.70;36.40
13976;DHT22;7062;49.792;9.946;2022-09-06T15:02:19;45.00;37.30
13976;DHT22;7062;49.792;9.946;2022-09-06T15:04:45;44.70;37.40
13976;DHT22;7062;49.792;9.946;2022-09-06T15:07:10;44.80;36.80
13976;DHT22;7062;49.792;9.946;2022-09-06T15:09:36;44.70;36.20
13976;DHT22;7062;49.792;9.946;2022-09-06T15:12:02;45.60;35.80
13976;DHT22;7062;49.792;9.946;2022-09-06T15:14:28;45.80;35.60
13976;DHT22;7062;49.792;9.946;2022-09-06T15:16:55;44.50;36.40
13976;DHT22;7062;49.792;9.946;2022-09-06T15:19:27;43.60;36.40
13976;DHT22;7062;49.792;9.946;2022-09-06T15:21:54;44.30;36.00
13976;DHT22;7062;49.792;9.946;2022-09-06T15:24:20;45.00;35.30
13976;DHT22;7062;49.792;9.946;2022-09-06T15:26:46;44.60;35.90
13976;DHT22;7062;49.792;9.946;2022-09-06T15:29:13;44.80;35.60
13976;DHT22;7062;49.792;9.946;2022-09-06T15:31:39;44.20;35.90
13976;DHT22;7062;49.792;9.946;2022-09-06T15:34:06;44.20;35.90
13976;DHT22;7062;49.792;9.946;2022-09-06T15:36:33;44.60;35.90
13976;DHT22;7062;49.792;9.946;2022-09-06T15:39:00;44.60;35.30
13976;DHT22;7062;49.792;9.946;2022-09-06T15:41:28;43.70;36.30
13976;DHT22;7062;49.792;9.946;2022-09-06T15:43:57;43.30;37.00
13976;DHT22;7062;49.792;9.946;2022-09-06T15:46:45;44.00;36.50
13976;DHT22;7062;49.792;9.946;2022-09-06T15:49:23;43.90;36.60
13976;DHT22;7062;49.792;9.946;2022-09-06T15:51:49;43.40;37.20
13976;DHT22;7062;49.792;9.946;2022-09-06T15:54:17;42.00;37.70
13976;DHT22;7062;49.792;9.946;2022-09-06T15:56:43;41.70;38.40
13976;DHT22;7062;49.792;9.946;2022-09-06T15:59:09;42.70;37.90
13976;DHT22;7062;49.792;9.946;2022-09-06T16:01:36;43.10;40.70
13976;DHT22;7062;49.792;9.946;2022-09-06T16:04:03;43.40;38.30
13976;DHT22;7062;49.792;9.946;2022-09-06T16:06:38;43.70;38.70
13976;DHT22;7062;49.792;9.946;2022-09-06T16:09:09;43.50;38.30
13976;DHT22;7062;49.792;9.946;2022-09-06T16:11:36;42.40;38.90
13976;DHT22;7062;49.792;9.946;2022-09-06T16:14:08;42.50;44.30
13976;DHT22;7062;49.792;9.946;2022-09-06T16:16:34;42.80;39.80
13976;DHT22;7062;49.792;9.946;2022-09-06T16:19:00;42.60;38.30
13976;DHT22;7062;49.792;9.946;2022-09-06T16:21:28;42.60;40.30
13976;DHT22;7062;49.792;9.946;2022-09-06T16:24:07;42.10;38.30
13976;DHT22;7062;49.792;9.946;2022-09-06T16:26:36;40.20;43.40
13976;DHT22;7062;49.792;9.946;2022-09-06T16:29:04;38.00;47.60
13976;DHT22;7062;49.792;9.946;2022-09-06T16:31:30;35.90;50.10
13976;DHT22;7062;49.792;9.946;2022-09-06T16:33:56;34.20;53.30
13976;DHT22;7062;49.792;9.946;2022-09-06T16:36:22;32.70;55.50
13976;DHT22;7062;49.792;9.946;2022-09-06T16:38:49;31.90;56.80
13976;DHT22;7062;49.792;9.946;2022-09-06T16:41:34;31.40;57.90
13976;DHT22;7062;49.792;9.946;2022-09-06T16:44:01;31.00;58.30
13976;DHT22;7062;49.792;9.946;2022-09-06T16:46:26;30.70;58.30
13976;DHT22;7062;49.792;9.946;2022-09-06T16:48:57;30.60;58.50
13976;DHT22;7062;49.792;9.946;2022-09-06T16:51:28;30.70;58.70
13976;DHT22;7062;49.792;9.946;2022-09-06T16:53:54;30.60;59.00
13976;DHT22;7062;49.792;9.946;2022-09-06T16:56:23;30.40;59.60
13976;DHT22;7062;49.792;9.946;2022-09-06T16:58:51;30.20;59.90
13976;DHT22;7062;49.792;9.946;2022-09-06T17:01:17;29.90;60.70
13976;DHT22;7062;49.792;9.946;2022-09-06T17:03:43;29.80;61.00
13976;DHT22;7062;49.792;9.946;2022-09-06T17:06:09;30.00;61.20
13976;DHT22;7062;49.792;9.946;2022-09-06T17:08:35;29.90;61.50
13976;DHT22;7062;49.792;9.946;2022-09-06T17:11:03;30.10;61.30
13976;DHT22;7062;49.792;9.946;2022-09-06T17:13:29;30.10;61.40
13976;DHT22;7062;49.792;9.946;2022-09-06T17:15:55;29.90;62.20
13976;DHT22;7062;49.792;9.946;2022-09-06T17:18:39;29.90;62.40
13976;DHT22;7062;49.792;9.946;2022-09-06T17:21:05;29.80;62.70
13976;DHT22;7062;49.792;9.946;2022-09-06T17:23:33;29.80;62.90
13976;DHT22;7062;49.792;9.946;2022-09-06T17:25:59;29.70;63.40
13976;DHT22;7062;49.792;9.946;2022-09-06T17:28:25;29.70;63.50
13976;DHT22;7062;49.792;9.946;2022-09-06T17:30:51;29.60;63.70
13976;DHT22;7062;49.792;9.946;2022-09-06T17:33:18;29.50;63.90
13976;DHT22;7062;49.792;9.946;2022-09-06T17:35:44;29.30;64.40
13976;DHT22;7062;49.792;9.946;2022-09-06T17:38:11;29.10;65.00
13976;DHT22;7062;49.792;9.946;2022-09-06T17:40:37;29.00;65.40
13976;DHT22;7062;49.792;9.946;2022-09-06T17:43:03;28.90;65.70
13976;DHT22;7062;49.792;9.946;2022-09-06T17:45:38;28.80;65.90
13976;DHT22;7062;49.792;9.946;2022-09-06T17:48:05;28.80;66.00